Time;durP1;ratioP1;P1;durP2;ratioP2;P2;SDS_P1;SDS_P2;PMS_P1;PMS_P2;Temp;Humidity;BMP_temperature;BMP_pressure;BME280_temperature;BME280_humidity;BME280_pressure;Samples;Min_cycle;Max_cycle;Signal;HPM_P1;HPM_P2
2023/09/09 00:02:14;;;;;;;;;;;18.80;99.90;;;;;;4935647;28;20332;-67
2023/09/09 00:04:40;;;;;;;;;;;18.80;99.90;;;;;;4934829;28;19922;-67
2023/09/09 00:07:06;;;;;;;;;;;18.90;99.90;;;;;;4936965;28;20131;-67
2023/09/09 00:09:32;;;;;;;;;;;18.90;99.90;;;;;;4918490;28;20473;-67
2023/09/09 00:11:57;;;;;;;;;;;19.00;99.90;;;;;;4920966;28;19944;-67
2023/09/09 00:14:24;;;;;;;;;;;19.00;99.90;;;;;;4934812;28;19929;-66
2023/09/09 00:16:49;;;;;;;;;;;19.10;99.90;;;;;;4936044;28;19918;-67
2023/09/09 00:19:15;;;;;;;;;;;19.10;99.90;;;;;;4918770;28;19973;-67
2023/09/09 00:21:41;;;;;;;;;;;19.10;99.90;;;;;;4939052;28;19922;-67
2023/09/09 00:24:07;;;;;;;;;;;19.10;99.90;;;;;;4935837;28;19937;-66
2023/09/09 00:26:33;;;;;;;;;;;19.10;99.90;;;;;;4935963;28;19930;-66
2023/09/09 00:28:58;;;;;;;;;;;19.10;99.90;;;;;;4918390;28;19981;-66
2023/09/09 00:31:24;;;;;;;;;;;19.20;99.90;;;;;;4935736;28;19929;-67
2023/09/09 00:33:49;;;;;;;;;;;19.20;99.90;;;;;;4933956;28;19927;-67
2023/09/09 00:36:15;;;;;;;;;;;19.20;99.90;;;;;;4934967;28;19933;-67
2023/09/09 00:38:41;;;;;;;;;;;19.20;99.90;;;;;;4956434;28;19985;-67
2023/09/09 00:41:13;;;;;;;;;;;19.10;99.90;;;;;;4934680;28;20016;-66
2023/09/09 00:43:39;;;;;;;;;;;19.10;99.90;;;;;;4902283;28;20491;-66
2023/09/09 00:46:06;;;;;;;;;;;19.00;99.90;;;;;;4918042;28;19930;-67
2023/09/09 00:48:32;;;;;;;;;;;19.00;99.90;;;;;;4933656;28;20138;-67
2023/09/09 00:50:57;;;;;;;;;;;19.00;99.90;;;;;;4940539;28;19930;-67
2023/09/09 00:53:24;;;;;;;;;;;18.90;99.90;;;;;;4936532;28;20392;-68
2023/09/09 00:55:50;;;;;;;;;;;18.80;99.90;;;;;;4934811;28;20214;-66
2023/09/09 00:58:16;;;;;;;;;;;18.80;99.90;;;;;;4933977;28;20139;-67
2023/09/09 01:00:41;;;;;;;;;;;18.80;99.90;;;;;;4933421;28;20282;-67
2023/09/09 01:03:09;;;;;;;;;;;18.80;99.90;;;;;;4940349;28;20398;-67
2023/09/09 01:05:36;;;;;;;;;;;18.70;99.90;;;;;;4933916;28;20488;-67
2023/09/09 01:08:02;;;;;;;;;;;18.70;99.90;;;;;;4935131;28;19957;-67
2023/09/09 01:10:28;;;;;;;;;;;18.70;99.90;;;;;;4933374;28;19930;-68
2023/09/09 01:12:53;;;;;;;;;;;18.70;99.90;;;;;;4933552;28;19926;-67
2023/09/09 01:15:19;;;;;;;;;;;18.60;99.90;;;;;;4933440;28;19922;-67
2023/09/09 01:17:45;;;;;;;;;;;18.60;99.90;;;;;;4933507;28;19969;-67
2023/09/09 01:20:12;;;;;;;;;;;18.60;99.90;;;;;;4949769;28;19922;-67
2023/09/09 01:22:39;;;;;;;;;;;18.50;99.90;;;;;;4935738;28;19922;-67
2023/09/09 01:25:05;;;;;;;;;;;18.50;99.90;;;;;;4933063;28;20013;-67
2023/09/09 01:27:31;;;;;;;;;;;18.50;99.90;;;;;;4917596;28;20208;-68
2023/09/09 01:29:57;;;;;;;;;;;18.40;99.90;;;;;;4932803;28;20347;-67
2023/09/09 01:32:22;;;;;;;;;;;18.30;99.90;;;;;;4933291;28;20005;-67
2023/09/09 01:34:49;;;;;;;;;;;18.40;99.90;;;;;;4935005;28;19932;-67
2023/09/09 01:37:14;;;;;;;;;;;18.40;99.90;;;;;;4917963;28;20214;-67
2023/09/09 01:39:40;;;;;;;;;;;18.30;99.90;;;;;;4931490;28;19933;-66
2023/09/09 01:42:06;;;;;;;;;;;18.20;99.90;;;;;;4931901;28;19922;-66
2023/09/09 01:44:31;;;;;;;;;;;18.20;99.90;;;;;;4916813;28;20400;-66
2023/09/09 01:46:57;;;;;;;;;;;18.20;99.90;;;;;;4932349;28;19926;-67
2023/09/09 01:49:22;;;;;;;;;;;18.20;99.90;;;;;;4934623;28;19961;-67
2023/09/09 01:51:48;;;;;;;;;;;18.20;99.90;;;;;;4932665;28;20159;-67
2023/09/09 01:54:13;;;;;;;;;;;18.10;99.90;;;;;;4933823;28;19922;-67
2023/09/09 01:56:39;;;;;;;;;;;18.10;99.90;;;;;;4939085;28;20080;-66
2023/09/09 01:59:04;;;;;;;;;;;18.10;99.90;;;;;;4932617;28;19926;-67
2023/09/09 02:01:30;;;;;;;;;;;18.10;99.90;;;;;;4934855;28;19929;-66
2023/09/09 02:03:56;;;;;;;;;;;18.10;99.90;;;;;;4934903;28;20478;-67
2023/09/09 02:06:21;;;;;;;;;;;18.10;99.90;;;;;;4932506;28;19926;-67
2023/09/09 02:08:47;;;;;;;;;;;18.00;99.90;;;;;;4932613;28;20138;-67
2023/09/09 02:11:12;;;;;;;;;;;18.00;99.90;;;;;;4931720;28;19925;-67
2023/09/09 02:13:38;;;;;;;;;;;18.00;99.90;;;;;;4916312;28;20400;-66
2023/09/09 02:16:04;;;;;;;;;;;18.00;99.90;;;;;;4956704;28;19922;-67
2023/09/09 02:18:30;;;;;;;;;;;18.00;99.90;;;;;;4932032;28;19922;-67
2023/09/09 02:20:59;;;;;;;;;;;17.90;99.90;;;;;;4935678;28;19930;-67
2023/09/09 02:23:25;;;;;;;;;;;17.90;99.90;;;;;;4933061;28;19985;-67
2023/09/09 02:25:50;;;;;;;;;;;17.90;99.90;;;;;;4931875;28;19926;-66
2023/09/09 02:28:17;;;;;;;;;;;17.80;99.90;;;;;;4932085;28;19933;-66
2023/09/09 02:30:43;;;;;;;;;;;17.80;99.90;;;;;;4933522;28;19918;-66
2023/09/09 02:33:09;;;;;;;;;;;17.80;99.90;;;;;;4934225;28;19980;-67
2023/09/09 02:35:34;;;;;;;;;;;17.70;99.90;;;;;;4932489;28;19930;-67
2023/09/09 02:38:00;;;;;;;;;;;17.70;99.90;;;;;;4931887;28;19993;-66
2023/09/09 02:40:26;;;;;;;;;;;17.70;99.90;;;;;;4934038;28;19945;-67
2023/09/09 02:42:51;;;;;;;;;;;17.80;99.90;;;;;;4931887;28;19922;-67
2023/09/09 02:45:17;;;;;;;;;;;17.80;99.90;;;;;;4939342;28;20284;-66
2023/09/09 02:47:43;;;;;;;;;;;17.80;99.90;;;;;;4932064;28;20578;-66
2023/09/09 02:50:09;;;;;;;;;;;17.70;99.90;;;;;;4932244;28;20029;-66
2023/09/09 02:52:34;;;;;;;;;;;17.70;99.90;;;;;;4932697;28;20447;-66
2023/09/09 02:55:00;;;;;;;;;;;17.70;99.90;;;;;;4932382;28;20449;-66
2023/09/09 02:57:25;;;;;;;;;;;17.60;99.90;;;;;;4931658;28;19926;-67
2023/09/09 02:59:51;;;;;;;;;;;17.70;99.90;;;;;;4931479;28;19989;-66
2023/09/09 03:02:16;;;;;;;;;;;17.60;99.90;;;;;;4934201;28;20413;-67
2023/09/09 03:04:42;;;;;;;;;;;17.60;99.90;;;;;;4934237;28;20491;-67
2023/09/09 03:07:09;;;;;;;;;;;17.60;99.90;;;;;;4932687;28;19922;-67
2023/09/09 03:09:36;;;;;;;;;;;17.50;99.90;;;;;;4932025;28;20675;-67
2023/09/09 03:12:02;;;;;;;;;;;17.50;99.90;;;;;;4931368;28;19922;-67
2023/09/09 03:14:28;;;;;;;;;;;17.60;99.90;;;;;;4931447;28;19922;-67
2023/09/09 03:16:54;;;;;;;;;;;17.60;99.90;;;;;;4932552;28;20031;-66
2023/09/09 03:19:19;;;;;;;;;;;17.70;99.90;;;;;;4918481;28;20491;-67
2023/09/09 03:21:45;;;;;;;;;;;17.70;99.90;;;;;;4931625;28;20013;-67
2023/09/09 03:24:11;;;;;;;;;;;17.60;99.90;;;;;;4941429;28;19980;-67
2023/09/09 03:26:36;;;;;;;;;;;17.60;99.90;;;;;;4935131;28;19926;-67
2023/09/09 03:29:03;;;;;;;;;;;17.50;99.90;;;;;;4934319;28;20663;-67
2023/09/09 03:31:29;;;;;;;;;;;17.60;99.90;;;;;;4936063;28;20225;-67
2023/09/09 03:33:55;;;;;;;;;;;17.60;99.90;;;;;;4944583;28;19932;-67
2023/09/09 03:36:20;;;;;;;;;;;17.60;99.90;;;;;;4919601;28;20381;-67
2023/09/09 03:38:46;;;;;;;;;;;17.60;99.90;;;;;;4924442;28;19933;-67
2023/09/09 03:41:12;;;;;;;;;;;17.60;99.90;;;;;;4918106;28;19922;-67
2023/09/09 03:43:37;;;;;;;;;;;17.50;99.90;;;;;;4935806;28;19977;-67
2023/09/09 03:46:03;;;;;;;;;;;17.50;99.90;;;;;;4918963;28;19957;-67
2023/09/09 03:48:29;;;;;;;;;;;17.50;99.90;;;;;;4935566;28;19933;-67
2023/09/09 03:51:01;;;;;;;;;;;17.50;99.90;;;;;;4937274;28;20333;-67
2023/09/09 03:53:27;;;;;;;;;;;17.50;99.90;;;;;;4950888;28;19923;-67
2023/09/09 03:55:53;;;;;;;;;;;17.60;99.90;;;;;;4933880;28;19929;-67
2023/09/09 03:58:19;;;;;;;;;;;17.50;99.90;;;;;;4934733;28;20361;-67
2023/09/09 04:00:46;;;;;;;;;;;17.60;99.90;;;;;;4934947;28;19926;-67
2023/09/09 04:03:12;;;;;;;;;;;17.60;99.90;;;;;;4936063;28;20321;-67
2023/09/09 04:05:39;;;;;;;;;;;17.60;99.90;;;;;;4936770;28;20001;-67
2023/09/09 04:08:08;;;;;;;;;;;17.60;99.90;;;;;;4918587;28;20033;-67
2023/09/09 04:10:34;;;;;;;;;;;17.60;99.90;;;;;;4934577;28;20017;-66
2023/09/09 04:13:00;;;;;;;;;;;17.70;99.90;;;;;;4919598;28;20092;-66
2023/09/09 04:15:26;;;;;;;;;;;17.60;99.90;;;;;;4917661;28;20400;-66
2023/09/09 04:17:51;;;;;;;;;;;17.70;99.90;;;;;;4934382;28;19929;-67
2023/09/09 04:20:17;;;;;;;;;;;17.60;99.90;;;;;;4935015;28;19969;-67
2023/09/09 04:22:42;;;;;;;;;;;17.50;99.90;;;;;;4934295;28;20139;-66
2023/09/09 04:25:08;;;;;;;;;;;17.50;99.90;;;;;;4933976;28;19934;-67
2023/09/09 04:27:33;;;;;;;;;;;17.60;99.90;;;;;;4920642;28;19929;-67
2023/09/09 04:29:59;;;;;;;;;;;17.60;99.90;;;;;;4933592;28;19918;-67
2023/09/09 04:32:25;;;;;;;;;;;17.60;99.90;;;;;;4937259;28;19977;-67
2023/09/09 04:34:50;;;;;;;;;;;17.60;99.90;;;;;;4934443;28;19970;-67
2023/09/09 04:37:16;;;;;;;;;;;17.70;99.90;;;;;;4934407;28;19997;-67
2023/09/09 04:39:41;;;;;;;;;;;17.70;99.90;;;;;;4933493;28;20052;-66
2023/09/09 04:42:07;;;;;;;;;;;17.80;99.90;;;;;;4934619;28;19918;-67
2023/09/09 04:44:33;;;;;;;;;;;17.80;99.90;;;;;;4940220;28;20114;-67
2023/09/09 04:46:58;;;;;;;;;;;17.70;99.90;;;;;;4936447;28;19985;-67
2023/09/09 04:49:24;;;;;;;;;;;17.80;99.90;;;;;;4940916;28;20229;-67
2023/09/09 04:51:50;;;;;;;;;;;17.80;99.90;;;;;;4933913;28;19929;-67
2023/09/09 04:54:15;;;;;;;;;;;17.70;99.90;;;;;;4933764;28;20289;-66
2023/09/09 04:56:41;;;;;;;;;;;17.70;99.90;;;;;;4933766;28;19945;-67
2023/09/09 04:59:06;;;;;;;;;;;17.60;99.90;;;;;;4949227;28;20570;-67
2023/09/09 05:01:32;;;;;;;;;;;17.70;99.90;;;;;;4920112;28;19965;-67
2023/09/09 05:03:57;;;;;;;;;;;17.60;99.90;;;;;;4918002;28;19922;-66
2023/09/09 05:06:23;;;;;;;;;;;17.60;99.90;;;;;;4936666;28;20385;-66
2023/09/09 05:08:49;;;;;;;;;;;17.60;99.90;;;;;;4901749;28;19927;-67
2023/09/09 05:11:15;;;;;;;;;;;17.60;99.90;;;;;;4937633;28;20021;-66
2023/09/09 05:13:40;;;;;;;;;;;17.70;99.90;;;;;;4917158;28;20595;-67
2023/09/09 05:16:06;;;;;;;;;;;17.60;99.90;;;;;;4937095;28;20067;-66
2023/09/09 05:18:31;;;;;;;;;;;17.60;99.90;;;;;;4938771;28;19927;-67
2023/09/09 05:20:57;;;;;;;;;;;17.60;99.90;;;;;;4917618;28;19985;-67
2023/09/09 05:23:22;;;;;;;;;;;17.50;99.90;;;;;;4940466;28;20199;-67
2023/09/09 05:25:48;;;;;;;;;;;17.60;99.90;;;;;;4949084;28;19926;-67
2023/09/09 05:28:14;;;;;;;;;;;17.70;99.90;;;;;;4934441;28;19976;-67
2023/09/09 05:30:40;;;;;;;;;;;17.70;99.90;;;;;;4901513;28;20123;-66
2023/09/09 05:33:06;;;;;;;;;;;17.70;99.90;;;;;;4931964;28;19933;-66
2023/09/09 05:35:31;;;;;;;;;;;17.70;99.90;;;;;;4917151;28;20301;-67
2023/09/09 05:37:57;;;;;;;;;;;17.80;99.90;;;;;;4932872;28;19922;-66
2023/09/09 05:40:23;;;;;;;;;;;18.00;99.90;;;;;;4933195;28;20795;-66
2023/09/09 05:42:48;;;;;;;;;;;18.10;99.90;;;;;;4915693;28;19993;-66
2023/09/09 05:45:14;;;;;;;;;;;18.20;99.90;;;;;;4932800;28;20345;-67
2023/09/09 05:47:41;;;;;;;;;;;18.30;99.90;;;;;;4947727;28;20432;-67
2023/09/09 05:50:07;;;;;;;;;;;18.50;99.90;;;;;;4933272;28;19926;-66
2023/09/09 05:52:33;;;;;;;;;;;18.60;99.90;;;;;;4933100;28;19985;-67
2023/09/09 05:54:59;;;;;;;;;;;18.70;99.90;;;;;;4916961;28;19950;-67
2023/09/09 05:57:24;;;;;;;;;;;18.90;99.90;;;;;;4935000;28;20289;-67
2023/09/09 05:59:50;;;;;;;;;;;19.10;99.90;;;;;;4919346;28;20373;-67
2023/09/09 06:02:15;;;;;;;;;;;19.20;99.90;;;;;;4937948;28;20013;-67
2023/09/09 06:04:41;;;;;;;;;;;19.40;99.90;;;;;;4935262;28;19980;-67
2023/09/09 06:07:07;;;;;;;;;;;19.50;99.90;;;;;;4932734;28;19934;-67
2023/09/09 06:09:32;;;;;;;;;;;19.60;99.90;;;;;;4934336;28;19922;-66
2023/09/09 06:11:58;;;;;;;;;;;19.70;99.90;;;;;;4933774;28;19922;-66
2023/09/09 06:14:23;;;;;;;;;;;19.90;99.90;;;;;;4932054;28;20480;-67
2023/09/09 06:16:49;;;;;;;;;;;20.10;99.90;;;;;;4917652;28;19961;-67
2023/09/09 06:19:14;;;;;;;;;;;20.40;99.90;;;;;;4935090;28;19953;-67
2023/09/09 06:21:41;;;;;;;;;;;20.80;99.90;;;;;;4933733;28;20024;-67
2023/09/09 06:24:07;;;;;;;;;;;21.10;99.90;;;;;;4933114;28;19931;-67
2023/09/09 06:26:33;;;;;;;;;;;21.40;99.90;;;;;;4932955;28;19957;-67
2023/09/09 06:29:00;;;;;;;;;;;21.70;99.90;;;;;;4949119;28;19922;-67
2023/09/09 06:31:26;;;;;;;;;;;21.80;99.90;;;;;;4933384;28;20598;-68
2023/09/09 06:33:51;;;;;;;;;;;22.10;99.90;;;;;;4932541;28;19926;-67
2023/09/09 06:36:20;;;;;;;;;;;22.20;99.90;;;;;;4917814;28;20089;-67
2023/09/09 06:38:45;;;;;;;;;;;22.40;99.90;;;;;;4931427;28;19922;-66
2023/09/09 06:41:13;;;;;;;;;;;22.60;99.90;;;;;;4903577;28;19922;-67
2023/09/09 06:43:38;;;;;;;;;;;22.70;99.90;;;;;;4916751;28;19922;-67
2023/09/09 06:46:04;;;;;;;;;;;22.90;99.90;;;;;;4933783;28;19941;-67
2023/09/09 06:48:30;;;;;;;;;;;23.10;99.90;;;;;;4933373;28;19984;-67
2023/09/09 06:50:55;;;;;;;;;;;23.40;99.90;;;;;;4933048;28;20424;-67
2023/09/09 06:53:22;;;;;;;;;;;23.60;99.90;;;;;;4933886;28;19969;-66
2023/09/09 06:55:47;;;;;;;;;;;23.90;99.90;;;;;;4933199;28;19923;-67
2023/09/09 06:58:13;;;;;;;;;;;24.10;99.90;;;;;;4932326;28;20433;-65
2023/09/09 07:00:39;;;;;;;;;;;24.30;99.90;;;;;;4919402;28;20021;-67
2023/09/09 07:03:07;;;;;;;;;;;24.70;99.90;;;;;;4937228;28;19926;-67
2023/09/09 07:05:33;;;;;;;;;;;24.80;99.90;;;;;;4936666;28;19949;-67
2023/09/09 07:07:58;;;;;;;;;;;25.10;99.90;;;;;;4938553;28;20082;-66
2023/09/09 07:10:24;;;;;;;;;;;25.20;95.10;;;;;;4938238;28;19929;-66
2023/09/09 07:12:49;;;;;;;;;;;25.30;99.90;;;;;;4920921;28;19918;-66
2023/09/09 07:15:15;;;;;;;;;;;25.20;99.90;;;;;;4920841;28;19937;-67
2023/09/09 07:17:43;;;;;;;;;;;25.30;99.90;;;;;;4936018;28;20359;-68
2023/09/09 07:20:09;;;;;;;;;;;25.50;99.90;;;;;;4920311;28;19933;-67
2023/09/09 07:22:34;;;;;;;;;;;25.60;79.40;;;;;;4937784;28;19922;-67
2023/09/09 07:25:00;;;;;;;;;;;25.70;96.10;;;;;;4935527;28;20391;-67
2023/09/09 07:27:26;;;;;;;;;;;25.80;65.20;;;;;;4936186;28;19922;-67
2023/09/09 07:29:51;;;;;;;;;;;26.10;99.90;;;;;;4935829;28;20009;-67
2023/09/09 07:32:17;;;;;;;;;;;26.00;70.00;;;;;;4938980;28;19922;-66
2023/09/09 07:34:42;;;;;;;;;;;26.20;39.10;;;;;;4937153;28;20013;-67
2023/09/09 07:37:08;;;;;;;;;;;26.10;31.20;;;;;;4934509;28;20339;-67
2023/09/09 07:39:54;;;;;;;;;;;26.40;46.10;;;;;;4930856;28;20234;-67
2023/09/09 07:42:20;;;;;;;;;;;26.40;16.20;;;;;;4936010;28;19973;-67
2023/09/09 07:44:46;;;;;;;;;;;26.30;19.10;;;;;;4918896;28;20068;-67
2023/09/09 07:47:11;;;;;;;;;;;26.60;16.70;;;;;;4917520;28;20215;-67
2023/09/09 07:49:37;;;;;;;;;;;26.80;15.90;;;;;;4937545;28;19923;-67
2023/09/09 07:52:03;;;;;;;;;;;26.90;24.20;;;;;;4936131;28;20070;-67
2023/09/09 07:54:29;;;;;;;;;;;27.10;14.50;;;;;;4937601;28;19918;-67
2023/09/09 07:56:55;;;;;;;;;;;27.10;6.10;;;;;;4936117;28;19997;-67
2023/09/09 07:59:21;;;;;;;;;;;27.40;13.90;;;;;;4935348;28;19922;-67
2023/09/09 08:01:47;;;;;;;;;;;27.40;16.50;;;;;;4937641;28;20038;-66
2023/09/09 08:04:12;;;;;;;;;;;27.60;7.40;;;;;;4939189;28;19932;-68
2023/09/09 08:06:38;;;;;;;;;;;27.70;1.00;;;;;;4936633;28;19926;-67
2023/09/09 08:09:04;;;;;;;;;;;27.40;1.00;;;;;;4940716;28;20451;-66
2023/09/09 08:11:29;;;;;;;;;;;27.70;1.00;;;;;;4935829;28;19929;-67
2023/09/09 08:13:55;;;;;;;;;;;27.70;1.00;;;;;;4936133;28;19969;-67
2023/09/09 08:16:20;;;;;;;;;;;27.70;1.00;;;;;;4937225;28;20377;-67
2023/09/09 08:18:46;;;;;;;;;;;27.90;1.00;;;;;;4919535;28;19926;-67
2023/09/09 08:21:13;;;;;;;;;;;28.10;1.00;;;;;;4937684;28;19929;-66
2023/09/09 08:23:38;;;;;;;;;;;28.20;1.00;;;;;;4950871;28;20322;-66
2023/09/09 08:26:04;;;;;;;;;;;28.40;1.00;;;;;;4934756;28;20389;-66
2023/09/09 08:28:30;;;;;;;;;;;28.40;1.00;;;;;;4937436;28;20604;-66
2023/09/09 08:30:59;;;;;;;;;;;28.30;1.00;;;;;;4922254;28;19982;-67
2023/09/09 08:33:25;;;;;;;;;;;28.50;1.00;;;;;;4905607;28;20018;-66
2023/09/09 08:35:50;;;;;;;;;;;28.40;1.00;;;;;;4950169;28;19922;-67
2023/09/09 08:38:16;;;;;;;;;;;28.70;1.00;;;;;;4918992;28;19922;-67
2023/09/09 08:40:51;;;;;;;;;;;28.40;1.00;;;;;;4918851;28;20101;-67
2023/09/09 08:43:28;;;;;;;;;;;28.50;1.00;;;;;;4945015;28;19922;-68
2023/09/09 08:46:00;;;;;;;;;;;28.80;1.00;;;;;;4953494;28;20391;-67
2023/09/09 08:48:27;;;;;;;;;;;28.40;1.00;;;;;;4954122;28;20440;-66
2023/09/09 08:50:57;;;;;;;;;;;28.50;1.00;;;;;;4954236;28;19922;-67
2023/09/09 08:53:25;;;;;;;;;;;28.60;1.00;;;;;;4954345;28;20036;-67
2023/09/09 08:55:52;;;;;;;;;;;29.00;1.00;;;;;;4954180;28;19929;-67
2023/09/09 08:58:17;;;;;;;;;;;29.20;1.00;;;;;;4955789;28;19994;-68
2023/09/09 09:00:43;;;;;;;;;;;29.30;1.00;;;;;;4953763;28;20420;-67
2023/09/09 09:03:09;;;;;;;;;;;29.30;1.00;;;;;;4937687;28;19922;-67
2023/09/09 09:05:36;;;;;;;;;;;29.30;1.00;;;;;;4954978;28;19926;-67
2023/09/09 09:08:02;;;;;;;;;;;29.30;1.00;;;;;;4953170;28;19929;-67
2023/09/09 09:10:28;;;;;;;;;;;29.70;1.00;;;;;;4953725;28;20198;-67
2023/09/09 09:12:53;;;;;;;;;;;29.90;1.00;;;;;;4937969;28;19922;-67
2023/09/09 09:15:23;;;;;;;;;;;30.00;1.00;;;;;;4937622;28;19921;-66
2023/09/09 09:17:49;;;;;;;;;;;30.30;1.00;;;;;;4937575;28;19921;-66
2023/09/09 09:20:25;;;;;;;;;;;30.40;1.00;;;;;;4953321;28;19948;-67
2023/09/09 09:22:51;;;;;;;;;;;30.60;1.00;;;;;;4968915;28;20013;-67
2023/09/09 09:25:20;;;;;;;;;;;30.60;1.00;;;;;;4955106;28;20724;-67
2023/09/09 09:27:46;;;;;;;;;;;30.50;1.00;;;;;;4936822;28;19929;-66
2023/09/09 09:30:11;;;;;;;;;;;30.90;1.00;;;;;;4953658;28;19918;-67
2023/09/09 09:32:40;;;;;;;;;;;30.80;1.00;;;;;;4953118;28;20013;-67
2023/09/09 09:35:06;;;;;;;;;;;30.90;1.00;;;;;;4954475;28;20364;-67
2023/09/09 09:37:32;;;;;;;;;;;31.00;1.00;;;;;;4953878;28;19980;-67
2023/09/09 09:39:57;;;;;;;;;;;30.80;1.00;;;;;;4953805;28;19929;-67
2023/09/09 09:42:23;;;;;;;;;;;31.00;1.00;;;;;;4936764;28;19922;-67
2023/09/09 09:44:48;;;;;;;;;;;30.50;1.00;;;;;;4952672;28;20185;-67
2023/09/09 09:47:15;;;;;;;;;;;30.70;1.00;;;;;;4954085;28;20081;-66
2023/09/09 09:49:41;;;;;;;;;;;30.60;1.00;;;;;;4932076;28;20244;-66
2023/09/09 09:52:08;;;;;;;;;;;31.10;1.00;;;;;;4936038;28;19928;-67
2023/09/09 09:54:34;;;;;;;;;;;31.00;1.00;;;;;;4934563;28;20025;-67
2023/09/09 09:57:01;;;;;;;;;;;30.70;1.00;;;;;;4934154;28;19922;-67
2023/09/09 09:59:33;;;;;;;;;;;31.20;1.00;;;;;;4934264;28;20083;-68
2023/09/09 10:02:03;;;;;;;;;;;31.20;1.00;;;;;;4934378;28;20480;-67
2023/09/09 10:04:33;;;;;;;;;;;31.20;1.00;;;;;;4934952;28;20182;-68
2023/09/09 10:07:00;;;;;;;;;;;31.30;1.00;;;;;;4934089;28;20424;-67
2023/09/09 10:09:38;;;;;;;;;;;31.40;1.00;;;;;;4918160;28;19938;-67
2023/09/09 10:12:11;;;;;;;;;;;31.50;1.00;;;;;;4934173;28;20589;-67
2023/09/09 10:14:37;;;;;;;;;;;31.50;1.00;;;;;;4934712;28;20345;-67
2023/09/09 10:17:07;;;;;;;;;;;31.80;1.00;;;;;;4934037;28;19922;-66
2023/09/09 10:19:34;;;;;;;;;;;31.70;1.00;;;;;;4941179;28;20544;-67
2023/09/09 10:22:01;;;;;;;;;;;31.70;1.00;;;;;;4933893;28;20513;-67
2023/09/09 10:24:26;;;;;;;;;;;31.80;1.00;;;;;;4917917;28;19922;-67
2023/09/09 10:26:52;;;;;;;;;;;31.70;1.00;;;;;;4933786;28;19977;-66
2023/09/09 10:29:19;;;;;;;;;;;31.70;1.00;;;;;;4936026;28;19926;-67
2023/09/09 10:31:46;;;;;;;;;;;31.70;1.00;;;;;;4933390;28;19922;-67
2023/09/09 10:34:12;;;;;;;;;;;32.10;1.00;;;;;;4933693;28;20336;-67
2023/09/09 10:36:38;;;;;;;;;;;32.10;1.00;;;;;;4935424;28;19922;-66
2023/09/09 10:39:05;;;;;;;;;;;32.00;1.00;;;;;;4933168;28;19934;-66
2023/09/09 10:41:32;;;;;;;;;;;31.60;1.00;;;;;;4923635;28;20038;-66
2023/09/09 10:43:57;;;;;;;;;;;31.70;1.00;;;;;;4911872;28;20154;-66
2023/09/09 10:46:38;;;;;;;;;;;32.10;1.00;;;;;;4942879;28;19926;-67
2023/09/09 10:49:04;;;;;;;;;;;31.90;1.00;;;;;;4941857;28;20042;-68
2023/09/09 10:51:43;;;;;;;;;;;32.00;1.00;;;;;;4942156;28;20012;-67
2023/09/09 10:54:08;;;;;;;;;;;32.00;1.00;;;;;;4943181;28;19930;-67
2023/09/09 10:56:34;;;;;;;;;;;32.00;1.00;;;;;;4942855;28;19922;-67
2023/09/09 10:59:13;;;;;;;;;;;32.10;1.00;;;;;;4928200;28;19922;-69
2023/09/09 11:01:39;;;;;;;;;;;32.20;1.00;;;;;;4945027;28;19980;-68
2023/09/09 11:04:16;;;;;;;;;;;32.10;1.00;;;;;;4943865;28;19978;-68
2023/09/09 11:06:57;;;;;;;;;;;32.20;1.00;;;;;;4942181;28;19930;-68
2023/09/09 11:09:26;;;;;;;;;;;32.20;1.00;;;;;;4926328;28;20420;-68
2023/09/09 11:11:54;;;;;;;;;;;32.50;1.00;;;;;;4926694;28;19918;-68
2023/09/09 11:14:20;;;;;;;;;;;32.70;1.00;;;;;;4945196;28;19929;-68
2023/09/09 11:16:48;;;;;;;;;;;32.70;1.00;;;;;;4942995;28;20269;-68
2023/09/09 11:19:16;;;;;;;;;;;33.00;1.00;;;;;;4943760;28;20449;-67
2023/09/09 11:21:41;;;;;;;;;;;33.20;1.00;;;;;;4941907;28;19919;-68
2023/09/09 11:24:07;;;;;;;;;;;32.90;1.00;;;;;;4943013;28;19973;-68
2023/09/09 11:26:36;;;;;;;;;;;32.80;1.00;;;;;;4926989;28;20170;-66
2023/09/09 11:29:03;;;;;;;;;;;33.10;1.00;;;;;;4926116;28;19981;-67
2023/09/09 11:31:30;;;;;;;;;;;33.40;1.00;;;;;;4937176;28;19972;-68
2023/09/09 11:33:59;;;;;;;;;;;33.80;1.00;;;;;;4942023;28;19926;-68
2023/09/09 11:36:25;;;;;;;;;;;33.50;1.00;;;;;;4946694;28;19952;-67
2023/09/09 11:38:53;;;;;;;;;;;33.80;1.00;;;;;;4924281;28;20432;-67
2023/09/09 11:41:19;;;;;;;;;;;34.20;1.00;;;;;;4958236;28;19922;-68
2023/09/09 11:43:46;;;;;;;;;;;34.00;1.00;;;;;;4942817;28;19985;-68
2023/09/09 11:46:12;;;;;;;;;;;33.70;1.00;;;;;;4942371;28;19922;-68
2023/09/09 11:48:37;;;;;;;;;;;33.60;1.00;;;;;;4911332;28;20006;-69
2023/09/09 11:51:03;;;;;;;;;;;33.70;1.00;;;;;;4943467;28;20001;-69
2023/09/09 11:53:29;;;;;;;;;;;34.00;1.00;;;;;;4943636;28;20080;-68
2023/09/09 11:55:56;;;;;;;;;;;34.10;1.00;;;;;;4946304;28;19933;-68
2023/09/09 11:58:21;;;;;;;;;;;33.30;1.00;;;;;;4929027;28;19930;-69
2023/09/09 12:00:47;;;;;;;;;;;32.40;1.00;;;;;;4948491;28;19922;-68
2023/09/09 12:03:20;;;;;;;;;;;32.90;1.00;;;;;;4935461;28;20470;-68
2023/09/09 12:05:48;;;;;;;;;;;32.90;1.00;;;;;;4945539;28;20049;-69
2023/09/09 12:08:13;;;;;;;;;;;32.50;1.00;;;;;;4946279;28;19922;-67
2023/09/09 12:10:39;;;;;;;;;;;32.50;1.00;;;;;;4946869;28;19925;-68
2023/09/09 12:13:05;;;;;;;;;;;32.30;1.00;;;;;;4945663;28;19977;-68
2023/09/09 12:15:31;;;;;;;;;;;31.80;1.00;;;;;;4943351;28;19988;-68
2023/09/09 12:17:56;;;;;;;;;;;31.50;1.00;;;;;;4944471;28;20364;-69
2023/09/09 12:20:22;;;;;;;;;;;31.70;1.00;;;;;;4945345;28;19919;-68
2023/09/09 12:22:50;;;;;;;;;;;32.20;1.00;;;;;;4945861;28;20500;-68
2023/09/09 12:25:47;;;;;;;;;;;32.10;1.00;;;;;;4947157;28;20221;-68
2023/09/09 12:28:17;;;;;;;;;;;32.00;1.00;;;;;;4919472;28;20381;-68
2023/09/09 12:30:43;;;;;;;;;;;32.00;1.00;;;;;;4934490;28;19922;-68
2023/09/09 12:33:16;;;;;;;;;;;31.90;1.00;;;;;;4945095;28;20210;-67
2023/09/09 12:35:42;;;;;;;;;;;32.00;1.00;;;;;;4945617;28;19918;-68
2023/09/09 12:38:08;;;;;;;;;;;32.40;1.00;;;;;;4945856;28;19977;-68
2023/09/09 12:40:45;;;;;;;;;;;32.00;1.00;;;;;;4942359;28;19921;-71
2023/09/09 12:43:11;;;;;;;;;;;32.40;1.00;;;;;;4885400;28;19918;-67
2023/09/09 12:45:45;;;;;;;;;;;32.00;1.00;;;;;;4928787;28;19982;-67
2023/09/09 12:48:11;;;;;;;;;;;31.90;1.00;;;;;;4945716;28;19926;-67
2023/09/09 12:50:37;;;;;;;;;;;32.30;1.00;;;;;;4944096;28;20443;-67
2023/09/09 12:53:02;;;;;;;;;;;32.50;1.00;;;;;;4944584;28;20308;-67
2023/09/09 12:55:28;;;;;;;;;;;33.00;1.00;;;;;;4951167;28;20000;-68
2023/09/09 12:57:53;;;;;;;;;;;31.80;1.00;;;;;;4946227;28;19922;-67
2023/09/09 13:00:19;;;;;;;;;;;31.20;1.00;;;;;;4945285;28;19925;-68
2023/09/09 13:02:45;;;;;;;;;;;31.70;1.00;;;;;;4941443;28;20109;-67
2023/09/09 13:05:11;;;;;;;;;;;32.30;1.00;;;;;;4942918;28;19922;-66
2023/09/09 13:07:36;;;;;;;;;;;32.20;1.00;;;;;;4926514;28;19922;-68
2023/09/09 13:10:02;;;;;;;;;;;32.50;1.00;;;;;;4941701;28;19918;-68
2023/09/09 13:12:28;;;;;;;;;;;32.50;1.00;;;;;;4927614;28;19926;-68
2023/09/09 13:14:53;;;;;;;;;;;33.00;1.00;;;;;;4944153;28;19925;-68
2023/09/09 13:17:19;;;;;;;;;;;33.40;1.00;;;;;;4929873;28;19969;-66
2023/09/09 13:19:45;;;;;;;;;;;33.30;1.00;;;;;;4944259;28;20385;-68
2023/09/09 13:22:11;;;;;;;;;;;32.60;1.00;;;;;;4943944;28;20037;-68
2023/09/09 13:24:36;;;;;;;;;;;33.00;1.00;;;;;;4944238;28;19970;-67
2023/09/09 13:27:02;;;;;;;;;;;33.30;1.00;;;;;;4927406;28;19954;-67
2023/09/09 13:29:28;;;;;;;;;;;33.70;1.00;;;;;;4942925;28;19923;-67
2023/09/09 13:31:54;;;;;;;;;;;33.50;1.00;;;;;;4925446;28;20377;-68
2023/09/09 13:34:19;;;;;;;;;;;33.40;1.00;;;;;;4942167;28;19930;-66
2023/09/09 13:36:45;;;;;;;;;;;33.20;1.00;;;;;;4962605;28;20308;-68
2023/09/09 13:39:10;;;;;;;;;;;33.00;1.00;;;;;;4927568;28;19929;-67
2023/09/09 13:41:36;;;;;;;;;;;33.10;1.00;;;;;;4944325;28;20083;-67
2023/09/09 13:44:02;;;;;;;;;;;32.80;1.00;;;;;;4927244;28;19922;-66
2023/09/09 13:46:28;;;;;;;;;;;32.80;1.00;;;;;;4943559;28;20033;-66
2023/09/09 13:48:53;;;;;;;;;;;32.80;1.00;;;;;;4943989;28;20017;-69
2023/09/09 13:51:20;;;;;;;;;;;32.80;1.00;;;;;;4929613;28;19929;-67
2023/09/09 13:53:46;;;;;;;;;;;33.00;1.00;;;;;;4945471;28;20134;-71
2023/09/09 13:56:12;;;;;;;;;;;32.80;1.00;;;;;;4960511;28;19925;-67
2023/09/09 13:58:38;;;;;;;;;;;33.00;1.00;;;;;;4928003;28;19922;-69
2023/09/09 14:01:04;;;;;;;;;;;32.60;1.00;;;;;;4941801;28;20388;-68
2023/09/09 14:03:30;;;;;;;;;;;32.60;1.00;;;;;;4940481;28;20014;-69
2023/09/09 14:05:56;;;;;;;;;;;32.60;1.00;;;;;;4940850;28;20334;-69
2023/09/09 14:08:22;;;;;;;;;;;32.60;1.00;;;;;;4940815;28;20017;-69
2023/09/09 14:10:48;;;;;;;;;;;32.70;1.00;;;;;;4925420;28;20260;-66
2023/09/09 14:13:14;;;;;;;;;;;32.60;1.00;;;;;;4931511;28;19922;-67
2023/09/09 14:15:40;;;;;;;;;;;32.40;1.00;;;;;;4941609;28;20220;-68
2023/09/09 14:18:06;;;;;;;;;;;32.40;1.00;;;;;;4940196;28;19981;-67
2023/09/09 14:20:34;;;;;;;;;;;32.30;1.00;;;;;;4937583;28;20151;-67